createdAt,value
2019-02-21T00:00:59.772Z,23.57
2019-02-21T00:03:26.122Z,23.30
2019-02-21T00:05:52.424Z,22.87
2019-02-21T00:08:18.831Z,23.03
2019-02-21T00:10:46.150Z,23.13
2019-02-21T00:13:13.003Z,23.13
2019-02-21T00:15:39.328Z,23.87
2019-02-21T00:18:05.857Z,23.17
2019-02-21T00:20:34.857Z,23.73
2019-02-21T00:23:04.496Z,22.60
2019-02-21T00:25:30.922Z,22.70
2019-02-21T00:27:57.098Z,24.23
2019-02-21T00:30:23.221Z,24.03
2019-02-21T00:32:49.340Z,23.47
2019-02-21T00:35:15.624Z,24.07
2019-02-21T00:37:41.878Z,24.13
2019-02-21T00:40:08.135Z,23.63
2019-02-21T00:42:34.285Z,24.93
2019-02-21T00:45:00.432Z,23.10
2019-02-21T00:47:31.353Z,24.63
2019-02-21T00:49:57.426Z,24.87
2019-02-21T00:52:23.554Z,24.70
2019-02-21T00:54:49.774Z,25.03
2019-02-21T00:57:15.923Z,24.03
2019-02-21T00:59:43.395Z,23.93
2019-02-21T01:02:09.763Z,25.50
2019-02-21T01:04:36.067Z,23.37
2019-02-21T01:07:04.401Z,24.93
2019-02-21T01:09:33.108Z,24.70
2019-02-21T01:12:00.338Z,25.17
2019-02-21T01:14:32.167Z,24.90
2019-02-21T01:16:58.377Z,25.63
2019-02-21T01:19:24.630Z,25.27
2019-02-21T01:21:50.830Z,25.50
2019-02-21T01:24:17.170Z,24.87
2019-02-21T01:26:43.543Z,26.17
2019-02-21T01:29:10.444Z,24.63
2019-02-21T01:31:36.808Z,26.30
2019-02-21T01:34:04.522Z,26.47
2019-02-21T01:36:31.905Z,25.67
2019-02-21T01:38:58.269Z,26.37
2019-02-21T01:41:25.500Z,24.97
2019-02-21T01:43:51.731Z,26.20
2019-02-21T01:46:17.962Z,25.50
2019-02-21T01:48:44.177Z,24.87
2019-02-21T01:51:10.403Z,25.73
2019-02-21T01:53:36.552Z,25.57
2019-02-21T01:56:05.157Z,24.90
2019-02-21T01:58:31.422Z,25.47
2019-02-21T02:01:08.070Z,26.10
2019-02-21T02:03:34.233Z,26.00
2019-02-21T02:06:04.561Z,24.57
2019-02-21T02:08:30.977Z,25.60
2019-02-21T02:10:57.387Z,25.77
2019-02-21T02:13:24.978Z,25.97
2019-02-21T02:15:51.492Z,27.53
2019-02-21T02:18:18.316Z,27.20
2019-02-21T02:20:48.563Z,25.47
2019-02-21T02:23:14.887Z,27.97
2019-02-21T02:25:41.099Z,26.77
2019-02-21T02:28:07.221Z,27.40
2019-02-21T02:30:33.757Z,28.03
2019-02-21T02:33:00.006Z,27.70
2019-02-21T02:35:32.269Z,28.33
2019-02-21T02:37:58.493Z,28.90
2019-02-21T02:40:24.821Z,27.50
2019-02-21T02:42:51.154Z,28.83
2019-02-21T02:45:17.276Z,28.30
2019-02-21T02:47:43.497Z,29.07
2019-02-21T02:50:12.579Z,29.40
2019-02-21T02:52:38.723Z,29.30
2019-02-21T02:55:05.186Z,29.77
2019-02-21T02:57:31.303Z,29.40
2019-02-21T03:00:03.997Z,29.70
2019-02-21T03:02:30.478Z,30.67
2019-02-21T03:04:56.617Z,29.30
2019-02-21T03:07:23.266Z,31.53
2019-02-21T03:09:49.378Z,29.10
2019-02-21T03:12:15.696Z,30.33
2019-02-21T03:14:41.805Z,31.00
2019-02-21T03:17:07.984Z,32.17
2019-02-21T03:19:35.289Z,32.30
2019-02-21T03:22:04.838Z,30.70
2019-02-21T03:24:31.139Z,32.27
2019-02-21T03:26:57.395Z,30.90
2019-02-21T03:29:23.609Z,31.33
2019-02-21T03:31:54.988Z,30.97
2019-02-21T03:34:18.002Z,30.03
2019-02-21T03:36:44.191Z,31.67
2019-02-21T03:39:10.416Z,29.87
2019-02-21T03:41:36.669Z,30.20
2019-02-21T03:44:05.486Z,31.50
2019-02-21T03:46:31.796Z,32.17
2019-02-21T03:48:58.035Z,30.80
2019-02-21T03:51:24.169Z,30.17
2019-02-21T03:53:50.468Z,30.37
2019-02-21T03:56:16.745Z,30.23
2019-02-21T03:58:43.583Z,30.30
2019-02-21T04:01:09.891Z,30.50
2019-02-21T04:03:36.203Z,32.47
2019-02-21T04:06:02.557Z,30.40
2019-02-21T04:08:28.896Z,29.60
2019-02-21T04:10:55.201Z,30.20
2019-02-21T04:13:21.641Z,30.03
2019-02-21T04:15:47.917Z,30.20
2019-02-21T04:18:14.302Z,29.03
2019-02-21T04:20:40.595Z,31.20
2019-02-21T04:23:06.858Z,29.83
2019-02-21T04:25:32.972Z,29.40
2019-02-21T04:27:59.322Z,29.13
2019-02-21T04:30:25.556Z,32.13
2019-02-21T04:32:51.705Z,28.83
2019-02-21T04:35:18.196Z,30.67
2019-02-21T04:37:44.418Z,31.80
2019-02-21T04:40:10.613Z,31.57
2019-02-21T04:42:37.029Z,33.67
2019-02-21T04:45:04.145Z,32.40
2019-02-21T04:47:30.328Z,31.23
2019-02-21T04:49:56.663Z,31.77
2019-02-21T04:52:23.019Z,33.10
2019-02-21T04:54:49.379Z,33.20
2019-02-21T04:57:15.653Z,31.80
2019-02-21T04:59:42.125Z,34.40
2019-02-21T05:02:08.397Z,33.63
2019-02-21T05:04:34.632Z,32.83
2019-02-21T05:07:00.936Z,35.27
2019-02-21T05:09:27.486Z,35.37
2019-02-21T05:11:53.648Z,36.17
2019-02-21T05:14:19.866Z,34.93
2019-02-21T05:16:46.119Z,33.30
2019-02-21T05:19:12.245Z,35.80
2019-02-21T05:21:38.569Z,37.03
2019-02-21T05:24:04.931Z,36.97
2019-02-21T05:26:39.367Z,36.67
2019-02-21T05:29:07.533Z,36.30
2019-02-21T05:31:47.692Z,36.50
2019-02-21T05:34:15.731Z,36.33
2019-02-21T05:37:00.377Z,37.37
2019-02-21T05:39:46.529Z,38.43
2019-02-21T05:42:14.698Z,38.73
2019-02-21T05:44:48.449Z,39.67
2019-02-21T05:47:22.657Z,39.13
2019-02-21T05:50:03.148Z,37.80
2019-02-21T05:52:31.188Z,39.43
2019-02-21T05:54:59.238Z,38.33
2019-02-21T05:57:42.345Z,39.00
2019-02-21T06:00:25.760Z,39.23
2019-02-21T06:02:56.480Z,40.53
2019-02-21T06:05:24.638Z,38.53
2019-02-21T06:08:09.175Z,39.97
2019-02-21T06:10:43.365Z,39.13
2019-02-21T06:13:17.505Z,38.37
2019-02-21T06:15:48.875Z,40.40
2019-02-21T06:18:26.090Z,38.90
2019-02-21T06:21:09.415Z,40.33
2019-02-21T06:23:49.531Z,39.93
2019-02-21T06:26:17.583Z,40.83
2019-02-21T06:28:53.443Z,40.63
2019-02-21T06:31:19.663Z,39.67
2019-02-21T06:33:45.751Z,40.90
2019-02-21T06:36:11.967Z,40.80
2019-02-21T06:38:38.080Z,40.83
2019-02-21T06:41:04.179Z,40.47
2019-02-21T06:43:30.293Z,39.83
2019-02-21T06:45:58.055Z,41.17
2019-02-21T06:48:24.402Z,40.47
2019-02-21T06:50:50.519Z,40.87
2019-02-21T06:53:16.687Z,40.43
2019-02-21T06:55:43.215Z,39.20
2019-02-21T06:58:09.533Z,40.47
2019-02-21T07:00:36.842Z,38.93
2019-02-21T07:03:03.180Z,38.37
2019-02-21T07:05:29.382Z,40.10
2019-02-21T07:07:55.602Z,40.17
2019-02-21T07:10:21.702Z,38.03
2019-02-21T07:12:47.952Z,40.40
2019-02-21T07:15:15.148Z,39.30
2019-02-21T07:17:48.769Z,38.83
2019-02-21T07:20:09.525Z,38.50
2019-02-21T07:22:35.798Z,38.77
2019-02-21T07:25:04.698Z,40.23
2019-02-21T07:27:31.822Z,39.40
2019-02-21T07:29:58.063Z,40.23
2019-02-21T07:32:24.266Z,39.07
2019-02-21T07:34:50.483Z,38.70
2019-02-21T07:37:18.885Z,39.03
2019-02-21T07:39:45.426Z,38.27
2019-02-21T07:42:11.529Z,38.37
2019-02-21T07:44:37.831Z,38.30
2019-02-21T07:47:04.017Z,37.93
2019-02-21T07:49:30.139Z,38.50
2019-02-21T07:51:56.343Z,39.33
2019-02-21T07:54:22.590Z,39.07
2019-02-21T07:56:48.970Z,38.40
2019-02-21T07:59:15.184Z,37.87
2019-02-21T08:01:41.496Z,38.77
2019-02-21T08:04:07.903Z,38.13
2019-02-21T08:06:34.087Z,38.77
2019-02-21T08:09:00.298Z,36.73
2019-02-21T08:11:26.701Z,38.93
2019-02-21T08:13:53.000Z,39.03
2019-02-21T08:16:19.364Z,38.37
2019-02-21T08:18:45.576Z,38.50
2019-02-21T08:21:12.988Z,37.20
2019-02-21T08:23:49.699Z,36.50
2019-02-21T08:26:07.204Z,36.13
2019-02-21T08:28:33.369Z,36.07
2019-02-21T08:30:59.824Z,37.77
2019-02-21T08:33:30.813Z,37.20
2019-02-21T08:35:57.929Z,37.40
2019-02-21T08:38:24.436Z,36.00
2019-02-21T08:40:53.229Z,37.53
2019-02-21T08:43:20.033Z,35.80
2019-02-21T08:45:46.271Z,36.80
2019-02-21T08:48:13.473Z,36.50
2019-02-21T08:50:40.152Z,37.30
2019-02-21T08:53:06.475Z,35.00
2019-02-21T08:55:32.735Z,37.63
2019-02-21T08:57:59.073Z,35.53
2019-02-21T09:00:25.211Z,35.97
2019-02-21T09:02:51.507Z,36.93
2019-02-21T09:05:17.950Z,35.50
2019-02-21T09:07:46.442Z,33.03
2019-02-21T09:10:12.712Z,36.63
2019-02-21T09:12:39.212Z,35.03
2019-02-21T09:15:08.948Z,32.83
2019-02-21T09:17:35.441Z,33.83
2019-02-21T09:20:01.706Z,34.17
2019-02-21T09:22:28.018Z,33.80
2019-02-21T09:24:54.140Z,34.40
2019-02-21T09:27:20.465Z,35.57
2019-02-21T09:29:46.747Z,33.60
2019-02-21T09:32:12.906Z,33.07
2019-02-21T09:34:39.288Z,32.10
2019-02-21T09:37:05.668Z,31.67
2019-02-21T09:39:31.907Z,33.47
2019-02-21T09:41:58.044Z,32.57
2019-02-21T09:44:27.390Z,32.57
2019-02-21T09:46:53.511Z,33.40
2019-02-21T09:49:19.789Z,34.67
2019-02-21T09:51:45.965Z,35.00
2019-02-21T09:54:12.076Z,37.90
2019-02-21T09:56:39.503Z,34.50
2019-02-21T09:59:05.792Z,37.43
2019-02-21T10:01:31.999Z,37.70
2019-02-21T10:03:58.119Z,35.80
2019-02-21T10:06:25.553Z,38.23
2019-02-21T10:08:51.944Z,37.93
2019-02-21T10:11:18.321Z,36.87
2019-02-21T10:13:44.732Z,38.10
2019-02-21T10:16:12.015Z,37.60
2019-02-21T10:18:38.222Z,37.23
2019-02-21T10:21:04.444Z,37.30
2019-02-21T10:23:30.686Z,37.07
2019-02-21T10:25:57.028Z,37.47
2019-02-21T10:28:23.251Z,37.33
2019-02-21T10:30:49.533Z,37.93
2019-02-21T10:33:15.707Z,39.10
2019-02-21T10:35:42.000Z,37.73
2019-02-21T10:38:08.177Z,37.40
2019-02-21T10:40:35.826Z,38.00
2019-02-21T10:43:07.789Z,39.83
2019-02-21T10:45:34.157Z,39.77
2019-02-21T10:48:05.459Z,41.17
2019-02-21T10:50:31.790Z,39.53
2019-02-21T10:55:30.578Z,40.47
2019-02-21T10:57:56.906Z,42.07
2019-02-21T11:00:31.529Z,40.87
2019-02-21T11:03:04.582Z,41.90
2019-02-21T11:05:30.971Z,43.27
2019-02-21T11:07:57.325Z,41.17
2019-02-21T11:10:27.393Z,44.27
2019-02-21T11:12:54.702Z,42.57
2019-02-21T11:15:22.763Z,43.10
2019-02-21T11:17:49.117Z,42.87
2019-02-21T11:20:19.298Z,43.60
2019-02-21T11:22:45.420Z,41.53
2019-02-21T11:25:13.724Z,44.20
2019-02-21T11:27:40.125Z,41.40
2019-02-21T11:30:15.151Z,42.77
2019-02-21T11:32:41.594Z,43.53
2019-02-21T11:35:07.917Z,37.97
2019-02-21T11:37:43.415Z,39.33
2019-02-21T11:40:09.033Z,39.90
2019-02-21T11:42:35.828Z,38.50
2019-02-21T11:45:15.951Z,40.13
2019-02-21T11:47:42.135Z,37.40
2019-02-21T11:50:10.962Z,37.50
2019-02-21T11:52:41.192Z,35.77
2019-02-21T11:55:10.425Z,35.10
2019-02-21T11:57:36.660Z,35.83
2019-02-21T12:00:10.166Z,34.97
2019-02-21T12:02:38.801Z,34.60
2019-02-21T12:05:17.508Z,35.83
2019-02-21T12:07:41.987Z,35.97
2019-02-21T12:10:15.378Z,35.50
2019-02-21T12:12:41.706Z,37.13
2019-02-21T12:15:17.351Z,34.03
2019-02-21T12:17:43.786Z,35.80
2019-02-21T12:20:15.640Z,35.93
2019-02-21T12:22:48.871Z,35.20
2019-02-21T12:25:22.657Z,34.50
2019-02-21T12:27:52.072Z,36.50
2019-02-21T12:30:19.192Z,36.87
2019-02-21T12:32:45.700Z,33.40
2019-02-21T12:35:12.054Z,32.53
2019-02-21T12:37:38.405Z,28.67
2019-02-21T12:40:15.743Z,30.07
2019-02-21T12:42:42.149Z,31.17
2019-02-21T12:45:11.636Z,30.50
2019-02-21T12:47:49.079Z,29.83
2019-02-21T12:50:09.341Z,31.77
2019-02-21T12:52:35.589Z,30.53
2019-02-21T12:55:05.930Z,31.00
2019-02-21T12:57:32.235Z,32.60
2019-02-21T12:59:58.447Z,32.50
2019-02-21T13:02:24.824Z,33.70
2019-02-21T13:04:51.059Z,30.87
2019-02-21T13:07:17.300Z,28.17
2019-02-21T13:09:43.431Z,30.23
2019-02-21T13:12:17.245Z,29.93
2019-02-21T13:14:43.443Z,28.73
2019-02-21T13:17:09.817Z,30.10
2019-02-21T13:19:36.190Z,30.63
2019-02-21T13:22:13.378Z,30.83
2019-02-21T13:24:39.965Z,29.90
2019-02-21T13:27:06.876Z,31.50
2019-02-21T13:29:33.472Z,30.80
2019-02-21T13:31:59.767Z,30.47
2019-02-21T13:34:26.028Z,30.60
2019-02-21T13:36:52.257Z,33.13
2019-02-21T13:39:18.485Z,29.47
2019-02-21T13:41:44.633Z,29.37
2019-02-21T13:44:11.064Z,30.33
2019-02-21T13:46:40.845Z,28.17
2019-02-21T13:49:08.860Z,29.13
2019-02-21T13:51:44.991Z,29.37
2019-02-21T13:54:11.526Z,30.73
2019-02-21T13:56:37.955Z,29.00
2019-02-21T13:59:08.318Z,31.77
2019-02-21T14:01:34.542Z,30.90
2019-02-21T14:04:13.182Z,31.13
2019-02-21T14:06:39.302Z,30.70
2019-02-21T14:09:09.671Z,29.13
2019-02-21T14:11:36.481Z,34.17
2019-02-21T14:14:02.897Z,30.93
2019-02-21T14:16:29.197Z,32.17
2019-02-21T14:18:56.547Z,28.93
2019-02-21T14:21:22.746Z,29.57
2019-02-21T14:23:48.881Z,28.37
2019-02-21T14:26:15.115Z,28.47
2019-02-21T14:28:42.570Z,27.57
2019-02-21T14:31:08.767Z,25.83
2019-02-21T14:33:35.035Z,25.30
2019-02-21T14:36:01.438Z,25.07
2019-02-21T14:38:28.479Z,24.60
2019-02-21T14:40:54.831Z,26.20
2019-02-21T14:43:21.155Z,25.37
2019-02-21T14:45:47.356Z,23.83
2019-02-21T14:48:13.650Z,25.17
2019-02-21T14:50:40.027Z,24.90
2019-02-21T14:53:06.398Z,22.83
2019-02-21T14:55:32.548Z,23.27
2019-02-21T14:57:59.001Z,22.97
2019-02-21T15:00:27.106Z,23.53
2019-02-21T15:02:53.562Z,25.70
2019-02-21T15:05:19.960Z,23.13
2019-02-21T15:07:46.424Z,24.90
2019-02-21T15:10:14.789Z,23.33
2019-02-21T15:12:41.161Z,23.00
2019-02-21T15:15:16.205Z,25.03
2019-02-21T15:17:42.576Z,22.60
2019-02-21T15:20:10.989Z,23.27
2019-02-21T15:22:37.329Z,23.93
2019-02-21T15:25:05.899Z,23.73
2019-02-21T15:27:32.244Z,23.67
2019-02-21T15:29:58.493Z,23.70
2019-02-21T15:32:24.868Z,24.17
2019-02-21T15:34:51.155Z,25.00
2019-02-21T15:37:17.439Z,24.20
2019-02-21T15:39:43.764Z,24.60
2019-02-21T15:42:09.985Z,24.00
2019-02-21T15:44:36.311Z,25.43
2019-02-21T15:47:02.939Z,23.87
2019-02-21T15:49:29.275Z,24.73
2019-02-21T15:51:55.801Z,23.47
2019-02-21T15:54:22.147Z,24.17
2019-02-21T15:56:48.441Z,24.63
2019-02-21T15:59:14.903Z,23.63
2019-02-21T16:01:47.594Z,23.27
2019-02-21T16:04:09.520Z,24.97
2019-02-21T16:06:37.952Z,24.50
2019-02-21T16:09:15.936Z,22.33
2019-02-21T16:11:34.751Z,23.57
2019-02-21T16:14:03.488Z,23.07
2019-02-21T16:16:29.778Z,22.57
2019-02-21T16:18:58.668Z,22.63
2019-02-21T16:21:24.497Z,22.33
2019-02-21T16:23:50.719Z,22.47
2019-02-21T16:26:16.971Z,22.87
2019-02-21T16:28:43.239Z,22.70
2019-02-21T16:31:09.542Z,21.23
2019-02-21T16:33:36.175Z,21.73
2019-02-21T16:36:03.706Z,22.00
2019-02-21T16:38:30.081Z,22.50
2019-02-21T16:40:56.393Z,21.70
2019-02-21T16:43:23.310Z,21.27
2019-02-21T16:45:53.636Z,20.20
2019-02-21T16:48:17.672Z,21.73
2019-02-21T16:50:43.808Z,19.77
2019-02-21T16:53:10.030Z,20.00
2019-02-21T16:55:36.266Z,20.80
2019-02-21T16:58:05.535Z,20.93
2019-02-21T17:00:42.380Z,19.43
2019-02-21T17:03:00.598Z,19.90
2019-02-21T17:05:27.348Z,18.80
2019-02-21T17:07:53.805Z,18.40
2019-02-21T17:10:20.031Z,17.47
2019-02-21T17:12:46.463Z,16.90
2019-02-21T17:15:14.928Z,15.90
2019-02-21T17:17:41.276Z,15.37
2019-02-21T17:20:11.208Z,17.17
2019-02-21T17:22:37.473Z,15.27
2019-02-21T17:25:06.913Z,15.73
2019-02-21T17:27:33.139Z,15.60
2019-02-21T17:29:59.544Z,15.90
2019-02-21T17:32:26.878Z,17.10
2019-02-21T17:34:53.141Z,17.67
2019-02-21T17:37:24.889Z,17.40
2019-02-21T17:39:47.971Z,16.80
2019-02-21T17:42:15.380Z,18.33
2019-02-21T17:44:41.614Z,18.77
2019-02-21T17:47:07.982Z,18.80
2019-02-21T17:49:34.274Z,20.20
2019-02-21T17:52:00.480Z,20.23
2019-02-21T17:54:27.723Z,20.90
2019-02-21T17:56:54.374Z,22.83
2019-02-21T17:59:20.570Z,22.87
2019-02-21T18:01:47.044Z,24.13
2019-02-21T18:04:13.525Z,25.80
2019-02-21T18:06:40.036Z,25.43
2019-02-21T18:09:06.508Z,25.87
2019-02-21T18:11:34.457Z,25.77
2019-02-21T18:14:00.661Z,27.37
2019-02-21T18:16:26.829Z,27.33
2019-02-21T18:18:53.173Z,27.53
2019-02-21T18:21:19.663Z,28.30
2019-02-21T18:23:45.940Z,27.90
2019-02-21T18:26:14.052Z,27.37
2019-02-21T18:28:40.322Z,27.37
2019-02-21T18:31:20.399Z,28.30
2019-02-21T18:33:46.639Z,29.00
2019-02-21T18:36:12.973Z,28.30
2019-02-21T18:38:39.429Z,29.73
2019-02-21T18:41:06.029Z,31.17
2019-02-21T18:43:32.606Z,32.77
2019-02-21T18:45:59.036Z,30.97
2019-02-21T18:48:25.197Z,31.87
2019-02-21T18:50:51.553Z,31.83
2019-02-21T18:53:17.889Z,32.23
2019-02-21T18:55:44.222Z,33.77
2019-02-21T18:58:10.589Z,34.77
2019-02-21T19:00:36.977Z,35.57
2019-02-21T19:03:03.302Z,36.20
2019-02-21T19:05:36.011Z,37.33
2019-02-21T19:08:05.013Z,41.03
2019-02-21T19:10:26.570Z,40.93
2019-02-21T19:12:53.021Z,39.80
2019-02-21T19:15:20.101Z,41.50
2019-02-21T19:17:46.459Z,44.93
2019-02-21T19:20:14.126Z,44.73
2019-02-21T19:22:40.358Z,47.37
2019-02-21T19:25:10.347Z,49.37
2019-02-21T19:27:37.606Z,50.07
2019-02-21T19:30:32.681Z,49.77
2019-02-21T19:32:59.101Z,48.77
2019-02-21T19:35:25.539Z,51.50
2019-02-21T19:37:52.104Z,51.93
2019-02-21T19:40:18.732Z,48.57
2019-02-21T19:42:45.177Z,48.27
2019-02-21T19:45:12.318Z,46.73
2019-02-21T19:47:38.687Z,46.93
2019-02-21T19:50:07.543Z,46.53
2019-02-21T19:52:35.006Z,48.73
2019-02-21T19:55:01.359Z,47.60
2019-02-21T19:57:28.690Z,50.33
2019-02-21T19:59:54.979Z,50.63
2019-02-21T20:02:21.475Z,51.80
2019-02-21T20:04:47.968Z,55.23
2019-02-21T20:07:14.444Z,53.97
2019-02-21T20:09:40.854Z,58.47
2019-02-21T20:12:07.284Z,56.50
2019-02-21T20:14:33.732Z,55.57
2019-02-21T20:17:00.655Z,54.70
2019-02-21T20:19:26.922Z,50.53
2019-02-21T20:21:54.547Z,53.97
2019-02-21T20:24:21.018Z,51.83
2019-02-21T20:26:47.478Z,52.07
2019-02-21T20:29:13.867Z,50.90
2019-02-21T20:31:40.332Z,45.70
2019-02-21T20:34:06.779Z,49.03
2019-02-21T20:36:33.249Z,47.87
2019-02-21T20:38:59.683Z,49.87
2019-02-21T20:41:25.930Z,48.00
2019-02-21T20:43:52.277Z,48.20
2019-02-21T20:46:30.470Z,49.83
2019-02-21T20:48:56.985Z,48.90
2019-02-21T20:51:23.440Z,50.17
2019-02-21T20:53:51.724Z,48.53
2019-02-21T20:56:18.208Z,50.43
2019-02-21T20:58:44.672Z,48.90
2019-02-21T21:01:12.516Z,50.00
2019-02-21T21:06:12.902Z,50.80
2019-02-21T21:08:43.146Z,50.80
2019-02-21T21:11:07.773Z,51.70
2019-02-21T21:13:34.449Z,53.63
2019-02-21T21:18:41.588Z,56.73
2019-02-21T21:21:08.227Z,60.63
2019-02-21T21:23:39.115Z,58.37
2019-02-21T21:26:07.106Z,58.80
2019-02-21T21:28:33.615Z,60.13
2019-02-21T21:30:59.883Z,56.87
2019-02-21T21:33:27.302Z,56.63
2019-02-21T21:35:54.505Z,56.10
2019-02-21T21:40:53.385Z,58.90
2019-02-21T21:43:19.578Z,58.77
2019-02-21T21:45:46.014Z,60.73
2019-02-21T21:48:12.226Z,59.13
2019-02-21T21:50:38.483Z,56.83
2019-02-21T21:53:04.945Z,60.93
2019-02-21T21:55:31.290Z,56.90
2019-02-21T21:58:04.133Z,59.23
2019-02-21T22:00:37.431Z,59.27
2019-02-21T22:03:05.082Z,57.03
2019-02-21T22:08:06.439Z,60.47
2019-02-21T22:10:32.658Z,61.17
2019-02-21T22:12:58.876Z,61.70
2019-02-21T22:15:25.089Z,62.97
2019-02-21T22:17:51.400Z,65.90
2019-02-21T22:20:17.845Z,63.33
2019-02-21T22:22:44.354Z,64.80
2019-02-21T22:25:12.085Z,62.53
2019-02-21T22:27:46.081Z,61.50
2019-02-21T22:30:16.107Z,62.87
2019-02-21T22:32:42.473Z,65.17
2019-02-21T22:35:09.122Z,66.23
2019-02-21T22:37:36.936Z,65.73
2019-02-21T22:40:06.935Z,70.03
2019-02-21T22:42:33.581Z,70.60
2019-02-21T22:44:59.979Z,72.07
2019-02-21T22:47:26.526Z,74.73
2019-02-21T22:49:55.940Z,75.27
2019-02-21T22:52:24.073Z,77.97
2019-02-21T22:54:50.359Z,76.20
2019-02-21T22:57:17.557Z,74.80
2019-02-21T22:59:43.793Z,77.27
2019-02-21T23:02:10.087Z,78.07
2019-02-21T23:04:40.187Z,76.90
2019-02-21T23:07:10.161Z,77.57
2019-02-21T23:09:36.787Z,75.13
2019-02-21T23:12:05.373Z,76.27
2019-02-21T23:14:31.650Z,75.50
2019-02-21T23:16:57.923Z,74.80
2019-02-21T23:19:24.372Z,75.27
2019-02-21T23:21:50.856Z,69.43
2019-02-21T23:24:17.213Z,76.07
2019-02-21T23:26:43.542Z,74.17
2019-02-21T23:29:10.914Z,73.90
2019-02-21T23:31:37.433Z,71.37
2019-02-21T23:34:06.980Z,73.03
2019-02-21T23:36:33.463Z,68.23
2019-02-21T23:38:59.747Z,69.07
2019-02-21T23:41:26.052Z,68.17
2019-02-21T23:43:52.346Z,66.27
2019-02-21T23:46:18.616Z,64.80
2019-02-21T23:48:44.842Z,66.43
2019-02-21T23:51:11.185Z,67.07
2019-02-21T23:53:37.477Z,64.60
2019-02-21T23:56:05.713Z,65.17
2019-02-21T23:58:32.016Z,64.33
